Time;durP1;ratioP1;P1;durP2;ratioP2;P2;SDS_P1;SDS_P2;PMS_P1;PMS_P2;Temp;Humidity;BMP_temperature;BMP_pressure;BME280_temperature;BME280_humidity;BME280_pressure;Samples;Min_cycle;Max_cycle;Signal;HPM_P1;HPM_P2
2024/01/30 00:01:14;;;;;;;6.85;5.63;;;;;;;9.67;100.00;102531.22;5242274;28;20647;-76
2024/01/30 00:03:46;;;;;;;8.25;6.03;;;;;;;9.68;100.00;102532.91;5239411;28;20462;-76
2024/01/30 00:06:20;;;;;;;6.82;5.28;;;;;;;9.60;100.00;102517.59;5237358;28;20048;-76
2024/01/30 00:08:53;;;;;;;8.23;5.90;;;;;;;9.59;100.00;102520.31;5240416;28;20037;-76
2024/01/30 00:11:28;;;;;;;6.20;5.23;;;;;;;9.62;100.00;102522.75;5241126;28;20065;-74
2024/01/30 00:14:00;;;;;;;6.07;5.38;;;;;;;9.59;100.00;102525.56;5241125;28;20296;-76
2024/01/30 00:16:32;;;;;;;6.88;5.28;;;;;;;9.55;100.00;102522.25;5242606;28;20052;-76
2024/01/30 00:19:04;;;;;;;7.68;5.55;;;;;;;9.56;100.00;102526.56;5237087;28;20530;-76
2024/01/30 00:21:36;;;;;;;8.63;5.88;;;;;;;9.55;100.00;102518.81;5242037;28;20033;-76
2024/01/30 00:24:08;;;;;;;9.15;5.65;;;;;;;9.53;100.00;102515.41;5234679;28;20479;-74
2024/01/30 00:26:40;;;;;;;7.60;5.47;;;;;;;9.54;100.00;102522.31;5241708;28;20368;-73
2024/01/30 00:29:12;;;;;;;7.20;5.93;;;;;;;9.54;100.00;102514.47;5236555;28;20029;-76
2024/01/30 00:31:44;;;;;;;6.95;5.57;;;;;;;9.44;100.00;102512.38;5242455;28;20025;-73
2024/01/30 00:34:16;;;;;;;6.85;5.22;;;;;;;9.32;100.00;102497.31;5239917;28;20029;-76
2024/01/30 00:36:47;;;;;;;6.03;5.43;;;;;;;9.44;100.00;102508.91;5236564;28;20484;-76
2024/01/30 00:39:20;;;;;;;7.22;5.88;;;;;;;9.47;100.00;102511.31;5246723;28;20041;-77
2024/01/30 00:41:52;;;;;;;6.63;5.00;;;;;;;9.44;100.00;102503.69;5239870;28;20021;-76
2024/01/30 00:44:24;;;;;;;8.45;5.85;;;;;;;9.49;100.00;102510.34;5240267;28;20439;-76
2024/01/30 00:46:55;;;;;;;8.65;5.82;;;;;;;9.50;100.00;102511.16;5240273;28;20122;-76
2024/01/30 00:49:27;;;;;;;8.18;5.55;;;;;;;9.47;100.00;102504.34;5236371;28;20044;-73
2024/01/30 00:51:59;;;;;;;10.45;5.55;;;;;;;9.43;100.00;102497.59;5240386;28;20037;-76
2024/01/30 00:54:31;;;;;;;8.23;6.30;;;;;;;9.47;100.00;102504.34;5236960;28;20038;-76
2024/01/30 00:57:03;;;;;;;6.32;5.32;;;;;;;9.39;100.00;102501.28;5241187;28;20032;-76
2024/01/30 00:59:35;;;;;;;8.30;5.30;;;;;;;9.42;100.00;102503.72;5237598;28;20473;-76
2024/01/30 01:02:07;;;;;;;6.22;4.97;;;;;;;9.35;100.00;102484.06;5247583;28;20025;-76
2024/01/30 01:04:39;;;;;;;6.72;5.40;;;;;;;9.44;100.00;102504.50;5240006;28;20497;-76
2024/01/30 01:07:11;;;;;;;6.97;5.38;;;;;;;9.35;100.00;102498.91;5240820;28;20041;-74
2024/01/30 01:09:43;;;;;;;8.35;5.80;;;;;;;9.37;100.00;102499.69;5241135;28;20148;-76
2024/01/30 01:12:15;;;;;;;7.47;5.32;;;;;;;9.39;100.00;102498.66;5242567;28;20034;-76
2024/01/30 01:14:47;;;;;;;7.30;5.28;;;;;;;9.38;100.00;102496.13;5234158;28;20056;-76
2024/01/30 01:17:19;;;;;;;6.43;4.88;;;;;;;9.36;100.00;102492.78;5241559;28;20020;-76
2024/01/30 01:19:51;;;;;;;7.35;5.93;;;;;;;9.41;100.00;102498.59;5242596;28;20025;-76
2024/01/30 01:22:23;;;;;;;6.53;5.25;;;;;;;9.40;100.00;102492.53;5237449;28;20033;-76
2024/01/30 01:24:55;;;;;;;6.68;5.00;;;;;;;9.45;100.00;102492.28;5241089;28;20040;-75
2024/01/30 01:27:27;;;;;;;6.88;5.35;;;;;;;9.41;100.00;102494.22;5241255;28;20029;-76
2024/01/30 01:29:59;;;;;;;7.50;5.75;;;;;;;9.39;100.00;102488.19;5238338;28;20409;-76
2024/01/30 01:32:31;;;;;;;6.55;5.60;;;;;;;9.35;100.00;102489.28;5248310;28;20049;-76
2024/01/30 01:35:05;;;;;;;9.40;5.90;;;;;;;9.42;100.00;102485.41;5240428;28;20043;-73
2024/01/30 01:37:37;;;;;;;6.47;4.88;;;;;;;9.42;100.00;102489.81;5240089;28;20045;-74
2024/01/30 01:40:09;;;;;;;5.80;5.20;;;;;;;9.47;100.00;102486.03;5234918;28;20394;-76
2024/01/30 01:42:41;;;;;;;7.07;5.20;;;;;;;9.45;100.00;102487.03;5238785;28;20025;-75
2024/01/30 01:45:13;;;;;;;9.43;5.72;;;;;;;9.48;100.00;102485.09;5240555;28;20031;-76
2024/01/30 01:47:47;;;;;;;7.43;5.28;;;;;;;9.52;100.00;102484.94;5240400;28;20037;-75
2024/01/30 01:50:21;;;;;;;6.28;4.78;;;;;;;9.53;100.00;102484.84;5243013;28;20034;-74
2024/01/30 01:52:55;;;;;;;7.32;5.20;;;;;;;9.55;100.00;102471.69;5237878;28;20053;-74
2024/01/30 01:55:28;;;;;;;;;;;;;;;10.14;100.00;102470.13;5250128;28;20025;-73
2024/01/30 01:58:00;;;;;;;6.80;5.03;;;;;;;9.63;100.00;102474.75;5240072;28;19932;-75
2024/01/30 02:00:32;;;;;;;6.53;5.10;;;;;;;9.56;100.00;102471.59;5242585;28;20029;-76
2024/01/30 02:03:05;;;;;;;7.28;5.53;;;;;;;9.54;100.00;102460.38;5240954;28;20037;-76
2024/01/30 02:05:38;;;;;;;6.05;5.10;;;;;;;9.54;100.00;102449.06;5238404;28;20045;-73
2024/01/30 02:08:10;;;;;;;5.85;5.07;;;;;;;9.58;100.00;102455.81;5238474;28;20036;-76
2024/01/30 02:10:42;;;;;;;6.40;4.70;;;;;;;9.54;100.00;102452.53;5238421;28;20045;-76
2024/01/30 02:13:13;;;;;;;9.82;6.20;;;;;;;9.56;100.00;102466.38;5238690;28;20080;-77
2024/01/30 02:15:49;;;;;;;6.70;5.07;;;;;;;9.68;100.00;102464.84;5236404;28;20031;-76
2024/01/30 02:18:22;;;;;;;5.82;4.97;;;;;;;9.53;100.00;102463.09;5242517;28;20044;-73
2024/01/30 02:20:58;;;;;;;7.03;5.03;;;;;;;9.59;100.00;102466.22;5232367;28;20033;-75
2024/01/30 02:23:32;;;;;;;5.65;4.70;;;;;;;9.57;100.00;102461.97;5237105;28;20029;-73
2024/01/30 02:26:04;;;;;;;8.35;5.10;;;;;;;9.60;100.00;102459.19;5235896;28;20398;-74
2024/01/30 02:28:35;;;;;;;7.25;5.63;;;;;;;9.56;100.00;102461.13;5237559;28;20036;-75
2024/01/30 02:31:07;;;;;;;6.75;4.97;;;;;;;9.48;100.00;102456.31;5241732;28;20029;-75
2024/01/30 02:33:39;;;;;;;6.72;5.05;;;;;;;9.48;100.00;102466.78;5234769;28;20116;-76
2024/01/30 02:36:11;;;;;;;5.88;4.90;;;;;;;9.39;100.00;102453.34;5239732;28;20102;-75
2024/01/30 02:38:43;;;;;;;7.38;5.10;;;;;;;9.48;100.00;102456.31;5238040;28;20037;-76
2024/01/30 02:41:15;;;;;;;6.57;4.70;;;;;;;9.43;100.00;102457.50;5242841;28;20056;-76
2024/01/30 02:43:47;;;;;;;5.03;4.53;;;;;;;9.47;100.00;102452.03;5236912;28;20043;-76
2024/01/30 02:46:19;;;;;;;5.57;4.40;;;;;;;9.43;100.00;102455.75;5244652;28;20021;-76
2024/01/30 02:48:51;;;;;;;7.45;4.85;;;;;;;9.48;100.00;102455.50;5241785;28;20529;-77
2024/01/30 02:51:23;;;;;;;6.03;4.80;;;;;;;9.45;100.00;102456.50;5244109;28;20036;-75
2024/01/30 02:53:55;;;;;;;6.00;4.93;;;;;;;9.47;100.00;102454.66;5243705;28;20032;-75
2024/01/30 02:56:26;;;;;;;6.97;4.72;;;;;;;9.45;100.00;102456.50;5240589;28;20043;-74
2024/01/30 02:58:58;;;;;;;8.73;5.03;;;;;;;9.47;100.00;102448.53;5243345;28;20045;-76
2024/01/30 03:01:31;;;;;;;7.05;5.43;;;;;;;9.43;100.00;102439.19;5241042;28;20029;-76
2024/01/30 03:04:03;;;;;;;5.95;5.35;;;;;;;9.50;100.00;102451.00;5245820;28;20036;-76
2024/01/30 03:06:35;;;;;;;5.72;4.40;;;;;;;9.49;100.00;102444.94;5244071;28;20036;-75
2024/01/30 03:09:09;;;;;;;7.40;4.55;;;;;;;9.52;100.00;102445.69;5243216;28;20085;-76
2024/01/30 03:11:41;;;;;;;6.15;4.70;;;;;;;9.52;100.00;102437.84;5241229;28;20478;-76
2024/01/30 03:14:13;;;;;;;6.53;4.82;;;;;;;9.52;100.00;102427.38;5239273;28;20033;-74
2024/01/30 03:16:44;;;;;;;5.47;4.50;;;;;;;9.55;100.00;102422.84;5245798;28;20090;-76
2024/01/30 03:19:16;;;;;;;6.65;5.38;;;;;;;9.50;100.00;102415.22;5241449;28;20040;-74
2024/01/30 03:21:48;;;;;;;6.57;4.47;;;;;;;9.50;100.00;102424.84;5239217;28;20104;-76
2024/01/30 03:24:20;;;;;;;7.50;4.80;;;;;;;9.47;100.00;102430.22;5238194;28;20038;-74
2024/01/30 03:26:53;;;;;;;5.95;5.03;;;;;;;9.47;100.00;102425.00;5241394;28;20135;-75
2024/01/30 03:29:25;;;;;;;6.65;4.55;;;;;;;9.49;100.00;102424.00;5242100;28;20036;-76
2024/01/30 03:31:57;;;;;;;5.55;4.63;;;;;;;9.47;100.00;102422.38;5242904;28;20033;-77
2024/01/30 03:34:29;;;;;;;6.18;5.38;;;;;;;9.44;100.00;102422.56;5239979;28;20403;-76
2024/01/30 03:37:00;;;;;;;6.15;4.93;;;;;;;9.44;100.00;102415.56;5240565;28;20037;-77
2024/01/30 03:39:32;;;;;;;5.60;4.57;;;;;;;9.47;100.00;102425.88;5244213;28;20041;-76
2024/01/30 03:42:04;;;;;;;5.82;4.65;;;;;;;9.48;100.00;102418.88;5237556;28;20037;-73
2024/01/30 03:44:36;;;;;;;6.65;5.05;;;;;;;9.47;100.00;102425.88;5244277;28;20033;-76
2024/01/30 03:47:08;;;;;;;6.32;4.85;;;;;;;9.53;100.00;102429.06;5243564;28;20382;-73
2024/01/30 03:49:40;;;;;;;7.15;5.20;;;;;;;9.49;100.00;102423.16;5241457;28;20107;-74
2024/01/30 03:52:12;;;;;;;6.03;5.00;;;;;;;9.46;100.00;102426.78;5238522;28;20037;-73
2024/01/30 03:54:44;;;;;;;8.48;4.75;;;;;;;9.49;100.00;102428.38;5242709;28;20048;-76
2024/01/30 03:57:16;;;;;;;6.68;5.13;;;;;;;9.54;100.00;102433.38;5242975;28;20470;-76
2024/01/30 03:59:48;;;;;;;5.65;4.95;;;;;;;9.57;100.00;102430.59;5241821;28;20041;-74
2024/01/30 04:02:20;;;;;;;5.95;4.50;;;;;;;9.57;100.00;102435.81;5239567;28;20039;-77
2024/01/30 04:04:52;;;;;;;7.47;4.80;;;;;;;9.54;100.00;102417.66;5237068;28;20033;-76
2024/01/30 04:07:24;;;;;;;6.63;4.85;;;;;;;9.60;100.00;102427.81;5240822;28;20441;-76
2024/01/30 04:09:56;;;;;;;7.22;5.15;;;;;;;9.65;100.00;102428.38;5245524;28;20034;-72
2024/01/30 04:12:27;;;;;;;6.60;4.80;;;;;;;9.67;100.00;102427.38;5235074;28;20054;-73
2024/01/30 04:14:59;;;;;;;5.80;4.65;;;;;;;9.71;100.00;102428.06;5238639;28;20038;-76
2024/01/30 04:17:32;;;;;;;6.88;5.53;;;;;;;9.67;100.00;102413.44;5239913;28;20046;-76
2024/01/30 04:20:05;;;;;;;7.55;5.20;;;;;;;9.71;100.00;102402.72;5241544;28;20036;-75
2024/01/30 04:22:36;;;;;;;6.75;5.10;;;;;;;9.80;100.00;102414.44;5241000;28;20405;-76
2024/01/30 04:25:08;;;;;;;8.38;5.38;;;;;;;9.76;100.00;102410.31;5243802;28;20029;-76
2024/01/30 04:27:40;;;;;;;7.32;5.03;;;;;;;9.81;100.00;102416.16;5240740;28;20035;-75
2024/01/30 04:30:12;;;;;;;5.88;4.75;;;;;;;9.87;100.00;102414.94;5236143;28;20028;-77
2024/01/30 04:32:44;;;;;;;7.95;4.85;;;;;;;9.85;100.00;102408.94;5241446;28;20029;-73
2024/01/30 04:35:16;;;;;;;6.45;5.35;;;;;;;9.92;100.00;102408.50;5236433;28;20024;-76
2024/01/30 04:37:48;;;;;;;6.28;4.68;;;;;;;9.82;100.00;102404.75;5237713;28;20060;-72
2024/01/30 04:40:21;;;;;;;8.25;4.65;;;;;;;9.84;100.00;102396.78;5237600;28;20139;-77
2024/01/30 04:42:53;;;;;;;6.65;4.65;;;;;;;9.84;100.00;102391.56;5238640;28;20038;-76
2024/01/30 04:45:24;;;;;;;6.32;4.47;;;;;;;9.85;100.00;102396.72;5239534;28;20570;-73
2024/01/30 04:47:56;;;;;;;6.50;4.95;;;;;;;9.91;100.00;102385.03;5233759;28;20029;-76
2024/01/30 04:50:28;;;;;;;6.50;4.50;;;;;;;9.98;100.00;102389.00;5240755;28;20037;-73
2024/01/30 04:53:00;;;;;;;7.05;4.68;;;;;;;9.97;100.00;102382.91;5245056;28;20052;-76
2024/01/30 04:55:32;;;;;;;6.38;4.90;;;;;;;9.96;100.00;102391.72;5238629;28;20025;-73
2024/01/30 04:58:04;;;;;;;5.57;4.32;;;;;;;9.99;100.00;102391.50;5242543;28;20037;-75
2024/01/30 05:00:36;;;;;;;8.15;4.63;;;;;;;9.94;100.00;102385.72;5244146;28;20036;-76
2024/01/30 05:03:08;;;;;;;6.93;4.43;;;;;;;10.01;100.00;102387.97;5244298;28;20063;-76
2024/01/30 05:05:40;;;;;;;6.32;4.50;;;;;;;9.97;100.00;102393.38;5233879;28;20052;-74
2024/01/30 05:08:12;;;;;;;8.63;4.75;;;;;;;9.92;100.00;102387.56;5242796;28;20033;-76
2024/01/30 05:10:44;;;;;;;5.85;4.43;;;;;;;9.96;100.00;102399.56;5239948;28;20417;-73
2024/01/30 05:13:16;;;;;;;5.80;4.90;;;;;;;9.95;100.00;102394.41;5235907;28;20660;-76
2024/01/30 05:15:48;;;;;;;5.95;4.70;;;;;;;9.96;100.00;102396.94;5239305;28;20291;-76
2024/01/30 05:18:20;;;;;;;7.07;4.90;;;;;;;9.93;100.00;102402.34;5241209;28;20037;-77
2024/01/30 05:20:51;;;;;;;5.45;4.43;;;;;;;9.88;100.00;102393.06;5238204;28;20039;-76
2024/01/30 05:23:23;;;;;;;5.80;4.70;;;;;;;9.91;100.00;102395.50;5240342;28;20486;-76
2024/01/30 05:25:55;;;;;;;7.97;4.85;;;;;;;9.88;100.00;102388.66;5237879;28;20037;-76
2024/01/30 05:28:29;;;;;;;8.38;5.30;;;;;;;9.97;100.00;102387.31;5241225;28;20059;-76
2024/01/30 05:31:01;;;;;;;7.68;4.75;;;;;;;9.92;100.00;102384.94;5235866;28;20036;-74
2024/01/30 05:33:33;;;;;;;7.07;4.82;;;;;;;9.99;100.00;102390.66;5240894;28;20091;-76
2024/01/30 05:36:05;;;;;;;7.13;4.93;;;;;;;9.98;100.00;102391.59;5241828;28;20033;-75
2024/01/30 05:38:37;;;;;;;5.22;4.32;;;;;;;9.99;100.00;102394.13;5244840;28;20042;-73
2024/01/30 05:41:09;;;;;;;6.22;4.65;;;;;;;10.00;100.00;102384.53;5233431;28;20095;-75
2024/01/30 05:43:42;;;;;;;8.95;4.80;;;;;;;10.05;100.00;102385.09;5235171;28;20091;-74
2024/01/30 05:46:13;;;;;;;5.90;4.63;;;;;;;10.11;100.00;102379.47;5237209;28;20033;-75
2024/01/30 05:48:45;;;;;;;7.22;4.90;;;;;;;10.14;100.00;102394.19;5239449;28;20075;-74
2024/01/30 05:51:17;;;;;;;5.30;4.45;;;;;;;10.17;100.00;102379.13;5243557;28;20187;-75
2024/01/30 05:53:49;;;;;;;7.00;4.97;;;;;;;10.19;100.00;102389.50;5237056;28;20032;-75
2024/01/30 05:56:21;;;;;;;7.10;5.20;;;;;;;10.22;100.00;102391.94;5239229;28;20040;-74
2024/01/30 05:58:53;;;;;;;9.37;5.20;;;;;;;10.27;100.00;102395.19;5240302;28;20033;-75
2024/01/30 06:01:25;;;;;;;8.95;5.60;;;;;;;10.25;100.00;102391.81;5233420;28;20033;-75
2024/01/30 06:03:57;;;;;;;6.65;5.03;;;;;;;10.25;100.00;102394.44;5241916;28;20045;-76
2024/01/30 06:06:29;;;;;;;6.38;5.15;;;;;;;10.27;100.00;102395.19;5238464;28;20030;-75
2024/01/30 06:09:01;;;;;;;7.05;4.60;;;;;;;10.22;100.00;102390.16;5242482;28;20044;-76
2024/01/30 06:11:33;;;;;;;7.55;4.78;;;;;;;10.32;100.00;102385.28;5246958;28;20025;-75
2024/01/30 06:14:05;;;;;;;7.35;5.05;;;;;;;10.34;100.00;102388.66;5241136;28;21136;-75
2024/01/30 06:16:37;;;;;;;5.25;4.43;;;;;;;10.33;100.00;102388.75;5242772;28;20063;-75
2024/01/30 06:19:09;;;;;;;6.40;4.72;;;;;;;10.30;100.00;102391.53;5237755;28;20037;-74
2024/01/30 06:21:41;;;;;;;7.90;5.07;;;;;;;10.41;100.00;102399.59;5239655;28;20033;-76
2024/01/30 06:24:12;;;;;;;6.97;5.13;;;;;;;10.35;100.00;102395.59;5237505;28;20048;-76
2024/01/30 06:26:44;;;;;;;6.60;5.13;;;;;;;10.33;100.00;102397.44;5244896;28;20025;-76
2024/01/30 06:29:16;;;;;;;6.93;5.03;;;;;;;10.37;100.00;102401.56;5237177;28;20032;-76
2024/01/30 06:31:48;;;;;;;7.50;4.93;;;;;;;10.34;100.00;102400.91;5235805;28;20033;-76
2024/01/30 06:34:21;;;;;;;5.75;4.93;;;;;;;10.36;100.00;102402.50;5247193;28;20032;-75
2024/01/30 06:36:53;;;;;;;5.70;5.05;;;;;;;10.44;100.00;102410.75;5242411;28;20040;-76
2024/01/30 06:39:26;;;;;;;7.00;5.13;;;;;;;10.43;100.00;102419.56;5241449;28;20037;-75
2024/01/30 06:41:58;;;;;;;;;;;;;;;11.00;100.00;102418.75;5239823;28;20041;-75
2024/01/30 06:44:30;;;;;;;7.13;4.68;;;;;;;10.51;100.00;102413.84;5250617;28;20274;-75
2024/01/30 06:47:02;;;;;;;9.25;5.13;;;;;;;10.53;100.00;102417.25;5239982;28;20032;-74
2024/01/30 06:49:34;;;;;;;5.72;4.78;;;;;;;10.57;100.00;102418.75;5239565;28;20132;-76
2024/01/30 06:52:06;;;;;;;6.65;5.10;;;;;;;10.53;100.00;102416.38;5237266;28;20029;-76
2024/01/30 06:54:39;;;;;;;8.32;5.20;;;;;;;10.43;100.00;102401.22;5241911;28;20450;-75
2024/01/30 06:57:12;;;;;;;5.95;4.63;;;;;;;10.53;100.00;102425.09;5240829;28;20021;-75
2024/01/30 06:59:44;;;;;;;8.32;5.45;;;;;;;10.53;100.00;102439.97;5247375;28;20029;-75
2024/01/30 07:02:15;;;;;;;6.18;4.70;;;;;;;10.47;100.00;102449.88;5237362;28;20040;-76
2024/01/30 07:04:47;;;;;;;6.82;4.68;;;;;;;10.41;100.00;102426.66;5239069;28;20037;-76
2024/01/30 07:07:19;;;;;;;6.63;4.95;;;;;;;10.42;100.00;102430.13;5243078;28;20489;-75
2024/01/30 07:09:56;;;;;;;7.57;5.38;;;;;;;10.50;100.00;102455.88;5239419;28;20033;-75
2024/01/30 07:12:30;;;;;;;9.10;5.55;;;;;;;10.53;100.00;102456.56;5242995;28;20478;-74
2024/01/30 07:15:03;;;;;;;6.25;4.97;;;;;;;10.47;100.00;102452.50;5245338;28;20025;-75
2024/01/30 07:17:35;;;;;;;7.43;4.82;;;;;;;10.58;100.00;102457.13;5241142;28;20359;-75
2024/01/30 07:20:09;;;;;;;7.55;5.38;;;;;;;10.51;100.00;102455.78;5242067;28;20044;-73
2024/01/30 07:22:41;;;;;;;6.80;4.93;;;;;;;10.52;100.00;102449.59;5245035;28;20394;-75
2024/01/30 07:25:13;;;;;;;7.70;4.82;;;;;;;10.56;100.00;102461.59;5241892;28;20032;-75
2024/01/30 07:27:45;;;;;;;7.80;5.15;;;;;;;10.54;100.00;102462.63;5250550;28;20028;-76
2024/01/30 07:30:18;;;;;;;7.25;5.47;;;;;;;10.56;100.00;102469.44;5240504;28;20032;-76
2024/01/30 07:32:50;;;;;;;;;;;;;;;11.15;100.00;102467.66;5238145;28;20045;-75
2024/01/30 07:35:22;;;;;;;5.55;4.50;;;;;;;10.63;100.00;102475.19;5243379;28;20328;-76
2024/01/30 07:37:54;;;;;;;8.55;5.43;;;;;;;10.65;100.00;102479.41;5248260;28;20021;-73
2024/01/30 07:40:26;;;;;;;8.38;5.03;;;;;;;10.66;100.00;102480.25;5245911;28;20037;-76
2024/01/30 07:42:57;;;;;;;8.98;5.38;;;;;;;10.64;100.00;102469.00;5247433;28;20022;-74
2024/01/30 07:45:32;;;;;;;5.43;4.78;;;;;;;10.67;100.00;102474.91;5241227;28;20029;-76
2024/01/30 07:48:05;;;;;;;7.32;4.57;;;;;;;10.68;100.00;102483.59;5244704;28;20022;-76
2024/01/30 07:50:37;;;;;;;6.57;5.13;;;;;;;10.71;100.00;102478.19;5244102;28;20036;-76
2024/01/30 07:53:09;;;;;;;6.45;5.20;;;;;;;10.68;100.00;102484.47;5240325;28;20136;-75
2024/01/30 07:55:43;;;;;;;7.45;4.97;;;;;;;10.70;100.00;102487.00;5243180;28;20202;-75
2024/01/30 07:58:15;;;;;;;6.10;5.50;;;;;;;10.71;100.00;102493.91;5249453;28;20060;-75
2024/01/30 08:00:47;;;;;;;7.53;5.15;;;;;;;10.73;100.00;102491.22;5248775;28;20028;-75
2024/01/30 08:03:19;;;;;;;7.63;4.97;;;;;;;10.74;100.00;102501.59;5246089;28;20036;-75
2024/01/30 08:05:51;;;;;;;9.05;4.70;;;;;;;10.82;100.00;102502.00;5241694;28;20044;-74
2024/01/30 08:08:23;;;;;;;9.05;5.10;;;;;;;10.83;100.00;102506.28;5228641;28;20349;-76
2024/01/30 08:10:55;;;;;;;6.68;4.78;;;;;;;10.83;100.00;102494.97;5239088;28;20048;-74
2024/01/30 08:13:27;;;;;;;7.10;5.28;;;;;;;10.81;100.00;102494.22;5241375;28;20051;-76
2024/01/30 08:15:59;;;;;;;9.23;4.97;;;;;;;10.87;100.00;102505.19;5241703;28;20463;-74
2024/01/30 08:18:31;;;;;;;6.90;4.95;;;;;;;10.93;100.00;102499.56;5242167;28;20024;-76
2024/01/30 08:21:04;;;;;;;8.05;4.97;;;;;;;10.96;100.00;102502.00;5241276;28;20044;-76
2024/01/30 08:23:38;;;;;;;5.43;4.82;;;;;;;11.16;100.00;102502.59;5240066;28;20044;-76
2024/01/30 08:26:10;;;;;;;6.70;4.82;;;;;;;11.10;100.00;102505.56;5257057;28;20064;-76
2024/01/30 08:28:42;;;;;;;5.75;4.82;;;;;;;11.06;100.00;102504.94;5238495;28;20033;-76
2024/01/30 08:31:14;;;;;;;7.95;4.50;;;;;;;11.15;100.00;102504.38;5244001;28;20097;-74
2024/01/30 08:33:46;;;;;;;7.25;5.22;;;;;;;11.17;100.00;102502.50;5249570;28;20405;-75
2024/01/30 08:36:18;;;;;;;9.82;5.80;;;;;;;11.23;100.00;102501.28;5241911;28;20028;-76
2024/01/30 08:38:50;;;;;;;6.78;4.75;;;;;;;11.30;100.00;102514.88;5241947;28;20374;-76
2024/01/30 08:41:22;;;;;;;5.85;4.95;;;;;;;11.29;100.00;102505.28;5242614;28;20072;-76
2024/01/30 08:43:54;;;;;;;5.72;4.65;;;;;;;11.40;100.00;102502.84;5241534;28;20622;-76
2024/01/30 08:46:26;;;;;;;7.70;5.20;;;;;;;11.38;100.00;102508.22;5243067;28;20044;-75
2024/01/30 08:48:58;;;;;;;6.22;5.07;;;;;;;11.45;100.00;102500.81;5242203;28;20040;-76
2024/01/30 08:51:30;;;;;;;6.03;4.75;;;;;;;11.44;100.00;102493.88;5243666;28;20501;-76
2024/01/30 08:54:02;;;;;;;6.43;4.47;;;;;;;11.51;100.00;102500.41;5240397;28;20041;-75
2024/01/30 08:56:35;;;;;;;9.98;5.80;;;;;;;11.53;100.00;102487.22;5241149;28;20146;-73
2024/01/30 08:59:07;;;;;;;7.22;5.07;;;;;;;11.64;100.00;102505.75;5240313;28;20037;-75
2024/01/30 09:01:39;;;;;;;7.80;5.05;;;;;;;11.58;100.00;102501.72;5243825;28;20039;-76
2024/01/30 09:04:11;;;;;;;9.60;5.53;;;;;;;11.69;100.00;102508.94;5238130;28;20303;-76
2024/01/30 09:06:43;;;;;;;9.73;5.28;;;;;;;11.73;100.00;102515.66;5241236;28;20047;-76
2024/01/30 09:09:15;;;;;;;9.52;5.82;;;;;;;11.64;100.00;102490.84;5238756;28;20485;-76
2024/01/30 09:11:47;;;;;;;8.50;4.82;;;;;;;11.79;100.00;102509.19;5241197;28;20036;-76
2024/01/30 09:14:19;;;;;;;8.82;5.22;;;;;;;11.83;100.00;102508.94;5244714;28;20032;-75
2024/01/30 09:16:51;;;;;;;6.17;4.80;;;;;;;11.93;100.00;102514.44;5238462;28;20610;-76
2024/01/30 09:19:23;;;;;;;6.68;4.95;;;;;;;11.96;100.00;102524.75;5243244;28;20048;-75
2024/01/30 09:21:55;;;;;;;10.20;5.78;;;;;;;11.99;100.00;102521.94;5244098;28;20045;-76
2024/01/30 09:24:27;;;;;;;8.35;5.10;;;;;;;12.00;100.00;102523.59;5240237;28;20028;-75
2024/01/30 09:27:00;;;;;;;8.95;5.35;;;;;;;12.12;100.00;102520.22;5244772;28;20025;-74
2024/01/30 09:29:34;;;;;;;7.55;5.07;;;;;;;12.16;100.00;102534.00;5243179;28;20033;-74
2024/01/30 09:32:06;;;;;;;8.98;4.95;;;;;;;12.13;100.00;102519.25;5239175;28;20390;-76
2024/01/30 09:34:39;;;;;;;8.43;5.57;;;;;;;12.21;100.00;102525.81;5241254;28;20036;-76
2024/01/30 09:37:11;;;;;;;7.10;5.15;;;;;;;12.31;100.00;102526.88;5234980;28;20029;-76
2024/01/30 09:39:43;;;;;;;8.45;5.38;;;;;;;12.31;100.00;102533.00;5242906;28;20041;-75
2024/01/30 09:42:20;;;;;;;8.73;5.18;;;;;;;12.38;100.00;102539.50;5242062;28;20036;-75
2024/01/30 09:44:53;;;;;;;7.25;5.35;;;;;;;12.38;100.00;102542.13;5246834;28;20029;-76
2024/01/30 09:47:26;;;;;;;8.52;5.10;;;;;;;12.44;100.00;102561.09;5238058;28;20033;-76
2024/01/30 09:49:58;;;;;;;6.18;4.90;;;;;;;12.44;100.00;102554.06;5241140;28;20487;-76
2024/01/30 09:52:30;;;;;;;7.82;5.50;;;;;;;12.42;100.00;102545.41;5242924;28;20471;-76
2024/01/30 09:55:03;;;;;;;9.32;5.15;;;;;;;12.48;100.00;102544.19;5239607;28;20040;-76
2024/01/30 09:57:35;;;;;;;9.00;5.50;;;;;;;12.50;100.00;102535.25;5240536;28;20056;-76
2024/01/30 10:00:08;;;;;;;10.40;5.22;;;;;;;12.52;100.00;102536.00;5241680;28;20037;-75
2024/01/30 10:02:40;;;;;;;9.52;5.70;;;;;;;12.53;100.00;102547.34;5244774;28;20387;-75
2024/01/30 10:05:16;;;;;;;8.63;5.25;;;;;;;12.62;100.00;102546.75;5238357;28;20076;-76
2024/01/30 10:07:55;;;;;;;8.23;5.68;;;;;;;12.68;100.00;102551.59;5239427;28;20037;-73
2024/01/30 10:10:26;;;;;;;8.85;5.35;;;;;;;12.55;100.00;102556.00;5240679;28;20029;-76
2024/01/30 10:12:58;;;;;;;10.32;6.15;;;;;;;12.57;100.00;102556.72;5238181;28;20040;-76
2024/01/30 10:15:30;;;;;;;9.73;5.22;;;;;;;12.59;100.00;102554.84;5236476;28;20971;-76
2024/01/30 10:18:02;;;;;;;7.05;4.93;;;;;;;12.57;100.00;102560.19;5236554;28;20025;-75
2024/01/30 10:20:34;;;;;;;9.98;5.65;;;;;;;12.61;100.00;102572.22;5242135;28;20064;-75
2024/01/30 10:23:07;;;;;;;7.50;5.55;;;;;;;12.65;100.00;102564.94;5247710;28;20048;-76
2024/01/30 10:25:39;;;;;;;8.68;5.57;;;;;;;12.74;100.00;102566.13;5232490;28;20033;-76
2024/01/30 10:28:11;;;;;;;10.27;6.07;;;;;;;12.72;100.00;102566.22;5233000;28;20026;-76
2024/01/30 10:30:43;;;;;;;8.07;5.40;;;;;;;12.75;100.00;102578.31;5239944;28;20040;-75
2024/01/30 10:33:15;;;;;;;9.25;6.50;;;;;;;12.84;100.00;102567.19;5238291;28;20042;-75
2024/01/30 10:35:50;;;;;;;9.45;6.13;;;;;;;12.91;100.00;102578.97;5238616;28;20044;-75
2024/01/30 10:38:25;;;;;;;9.18;6.32;;;;;;;12.99;100.00;102575.84;5235603;28;20036;-76
2024/01/30 10:40:59;;;;;;;12.05;5.50;;;;;;;12.97;100.00;102575.13;5238518;28;20048;-75
2024/01/30 10:43:35;;;;;;;8.50;5.82;;;;;;;12.98;100.00;102571.53;5232235;28;20502;-74
2024/01/30 10:46:17;;;;;;;9.70;5.88;;;;;;;13.01;100.00;102572.16;5237959;28;20419;-76
2024/01/30 10:48:57;;;;;;;7.45;5.57;;;;;;;13.04;100.00;102571.97;5236145;28;20036;-74
2024/01/30 10:51:31;;;;;;;10.35;6.32;;;;;;;13.02;100.00;102584.38;5247422;28;20040;-75
2024/01/30 10:54:05;;;;;;;7.22;5.65;;;;;;;13.00;100.00;102572.28;5242043;28;20032;-76
2024/01/30 10:56:38;;;;;;;9.05;5.57;;;;;;;13.05;100.00;102580.69;5240233;28;20044;-76
2024/01/30 10:59:13;;;;;;;9.63;5.85;;;;;;;13.05;100.00;102578.06;5250615;28;20045;-76
2024/01/30 11:01:45;;;;;;;10.70;6.38;;;;;;;13.04;100.00;102579.03;5236446;28;20041;-76
2024/01/30 11:04:17;;;;;;;8.53;5.47;;;;;;;13.05;100.00;102575.44;5239075;28;20056;-75
2024/01/30 11:06:49;;;;;;;9.40;6.30;;;;;;;12.99;100.00;102583.72;5240899;28;20314;-76
2024/01/30 11:09:21;;;;;;;10.32;6.70;;;;;;;13.02;100.00;102580.91;5245149;28;20135;-76
2024/01/30 11:12:02;;;;;;;8.93;5.47;;;;;;;13.07;100.00;102589.34;5236648;28;20044;-76
2024/01/30 11:14:34;;;;;;;8.50;6.28;;;;;;;13.02;100.00;102586.16;5243050;28;20033;-75
2024/01/30 11:17:06;;;;;;;9.27;6.45;;;;;;;12.93;100.00;102578.91;5238586;28;20044;-76
2024/01/30 11:19:38;;;;;;;12.20;7.15;;;;;;;12.93;100.00;102581.53;5237517;28;20045;-75
2024/01/30 11:22:10;;;;;;;9.35;6.20;;;;;;;12.97;100.00;102583.00;5242010;28;20044;-76
2024/01/30 11:24:42;;;;;;;12.73;6.75;;;;;;;12.99;100.00;102587.19;5243001;28;20033;-76
2024/01/30 11:27:15;;;;;;;9.80;6.15;;;;;;;12.97;100.00;102567.22;5240765;28;20502;-76
2024/01/30 11:29:51;;;;;;;7.83;5.73;;;;;;;13.09;100.00;102567.22;5234083;28;20037;-76
2024/01/30 11:32:24;;;;;;;10.65;6.50;;;;;;;13.13;100.00;102583.66;5237499;28;20280;-76
2024/01/30 11:34:56;;;;;;;8.20;5.53;;;;;;;13.15;100.00;102566.81;5240529;28;20026;-75
2024/01/30 11:37:30;;;;;;;8.98;5.35;;;;;;;13.14;100.00;102564.28;5237499;28;20036;-74
2024/01/30 11:40:04;;;;;;;9.45;4.45;;;;;;;13.27;100.00;102578.31;5239092;28;20059;-76
2024/01/30 11:42:38;;;;;;;6.40;4.60;;;;;;;13.19;100.00;102577.13;5242177;28;21043;-75
2024/01/30 11:45:11;;;;;;;7.88;4.50;;;;;;;13.28;100.00;102581.78;5235304;28;20040;-75